createdAt,value
2018-02-27T00:00:25.522Z,7.55
2018-02-27T00:02:52.166Z,6.85
2018-02-27T00:05:18.511Z,7.40
2018-02-27T00:07:44.672Z,7.60
2018-02-27T00:10:10.971Z,7.50
2018-02-27T00:12:38.300Z,7.53
2018-02-27T00:15:05.122Z,7.10
2018-02-27T00:17:31.990Z,7.43
2018-02-27T00:19:58.222Z,6.45
2018-02-27T00:22:25.806Z,7.20
2018-02-27T00:24:54.339Z,7.65
2018-02-27T00:27:21.142Z,6.37
2018-02-27T00:29:47.782Z,7.47
2018-02-27T00:32:14.319Z,8.20
2018-02-27T00:34:41.316Z,7.93
2018-02-27T00:37:07.451Z,7.97
2018-02-27T00:39:33.792Z,7.70
2018-02-27T00:42:00.107Z,8.23
2018-02-27T00:44:27.224Z,8.40
2018-02-27T00:46:53.634Z,9.65
2018-02-27T00:49:19.918Z,9.90
2018-02-27T00:51:46.044Z,10.13
2018-02-27T00:54:12.399Z,9.18
2018-02-27T00:56:39.948Z,9.10
2018-02-27T00:59:06.483Z,10.07
2018-02-27T01:01:33.688Z,10.15
2018-02-27T01:04:00.094Z,10.80
2018-02-27T01:06:27.420Z,10.05
2018-02-27T01:08:55.439Z,9.60
2018-02-27T01:11:22.033Z,9.63
2018-02-27T01:13:51.040Z,9.43
2018-02-27T01:16:17.725Z,9.70
2018-02-27T01:18:44.153Z,9.25
2018-02-27T01:21:10.549Z,9.07
2018-02-27T01:23:37.458Z,9.40
2018-02-27T01:26:03.862Z,8.65
2018-02-27T01:28:30.162Z,7.25
2018-02-27T01:30:58.775Z,7.68
2018-02-27T01:33:25.130Z,7.82
2018-02-27T01:35:51.589Z,7.05
2018-02-27T01:38:18.359Z,8.20
2018-02-27T01:40:45.467Z,8.10
2018-02-27T01:43:12.070Z,9.00
2018-02-27T01:45:38.473Z,7.60
2018-02-27T01:48:05.044Z,8.07
2018-02-27T01:50:31.453Z,7.10
2018-02-27T01:52:57.676Z,7.37
2018-02-27T01:55:23.792Z,7.25
2018-02-27T01:57:50.029Z,7.70
2018-02-27T02:00:16.352Z,7.45
2018-02-27T02:02:42.897Z,8.30
2018-02-27T02:05:10.618Z,7.30
2018-02-27T02:07:37.180Z,7.60
2018-02-27T02:10:03.676Z,7.15
2018-02-27T02:12:29.837Z,7.80
2018-02-27T02:14:56.091Z,7.20
2018-02-27T02:17:22.342Z,6.55
2018-02-27T02:19:48.734Z,6.75
2018-02-27T02:22:14.938Z,6.10
2018-02-27T02:24:41.130Z,6.20
2018-02-27T02:27:07.332Z,6.75
2018-02-27T02:29:33.576Z,6.70
2018-02-27T02:32:00.694Z,7.70
2018-02-27T02:34:28.508Z,5.47
2018-02-27T02:36:54.690Z,5.78
2018-02-27T02:39:20.849Z,6.07
2018-02-27T02:42:07.961Z,3.33
2018-02-27T02:44:34.295Z,5.00
2018-02-27T02:47:00.807Z,3.60
2018-02-27T02:49:27.780Z,4.37
2018-02-27T02:51:54.102Z,5.85
2018-02-27T02:54:20.640Z,6.18
2018-02-27T02:56:47.339Z,6.05
2018-02-27T02:59:13.600Z,5.80
2018-02-27T03:01:39.939Z,5.82
2018-02-27T03:04:06.944Z,7.05
2018-02-27T03:06:34.659Z,5.80
2018-02-27T03:09:01.282Z,5.25
2018-02-27T03:11:29.162Z,5.97
2018-02-27T03:13:55.431Z,6.35
2018-02-27T03:16:21.698Z,6.18
2018-02-27T03:18:48.092Z,6.10
2018-02-27T03:21:14.357Z,6.00
2018-02-27T03:23:40.972Z,5.60
2018-02-27T03:26:07.306Z,5.47
2018-02-27T03:28:34.179Z,4.87
2018-02-27T03:31:00.994Z,5.50
2018-02-27T03:33:27.538Z,5.97
2018-02-27T03:35:54.519Z,6.47
2018-02-27T03:38:20.802Z,6.12
2018-02-27T03:40:47.714Z,6.12
2018-02-27T03:43:14.785Z,7.10
2018-02-27T03:45:41.334Z,7.30
2018-02-27T03:48:07.472Z,6.15
2018-02-27T03:50:33.669Z,6.60
2018-02-27T03:53:00.384Z,5.65
2018-02-27T03:55:26.659Z,5.50
2018-02-27T03:57:53.171Z,5.87
2018-02-27T04:00:19.323Z,6.22
2018-02-27T04:02:48.110Z,5.15
2018-02-27T04:05:15.025Z,5.65
2018-02-27T04:07:44.604Z,5.82
2018-02-27T04:10:11.530Z,5.55
2018-02-27T04:12:37.588Z,5.03
2018-02-27T04:15:03.828Z,5.43
2018-02-27T04:17:30.040Z,5.18
2018-02-27T04:19:56.279Z,6.10
2018-02-27T04:22:22.420Z,6.05
2018-02-27T04:24:48.527Z,6.07
2018-02-27T04:27:15.130Z,4.80
2018-02-27T04:29:42.017Z,5.68
2018-02-27T04:32:08.820Z,6.47
2018-02-27T04:34:36.075Z,5.60
2018-02-27T04:37:05.379Z,5.60
2018-02-27T04:39:31.668Z,6.12
2018-02-27T04:41:57.955Z,5.80
2018-02-27T04:44:24.125Z,5.35
2018-02-27T04:46:51.042Z,6.00
2018-02-27T04:49:17.276Z,5.30
2018-02-27T04:51:43.522Z,5.82
2018-02-27T04:54:10.118Z,5.80
2018-02-27T04:56:36.274Z,5.22
2018-02-27T04:59:02.554Z,5.43
2018-02-27T05:01:28.955Z,5.30
2018-02-27T05:03:55.760Z,5.12
2018-02-27T05:06:22.244Z,5.60
2018-02-27T05:08:48.429Z,4.90
2018-02-27T05:11:15.134Z,5.90
2018-02-27T05:13:41.467Z,6.32
2018-02-27T05:16:08.440Z,5.35
2018-02-27T05:18:35.975Z,5.68
2018-02-27T05:21:02.661Z,5.30
2018-02-27T05:23:30.111Z,5.60
2018-02-27T05:25:57.564Z,5.47
2018-02-27T05:28:24.458Z,5.45
2018-02-27T05:30:50.652Z,5.15
2018-02-27T05:33:17.910Z,5.50
2018-02-27T05:35:44.751Z,5.40
2018-02-27T05:38:12.209Z,5.18
2018-02-27T05:40:38.879Z,5.70
2018-02-27T05:43:05.675Z,5.80
2018-02-27T05:45:32.022Z,5.85
2018-02-27T05:47:58.235Z,5.60
2018-02-27T05:50:24.561Z,5.72
2018-02-27T05:52:51.340Z,5.45
2018-02-27T05:55:17.520Z,5.43
2018-02-27T05:57:43.899Z,5.72
2018-02-27T06:00:10.114Z,5.85
2018-02-27T06:02:36.453Z,6.32
2018-02-27T06:05:03.686Z,4.90
2018-02-27T06:07:30.293Z,6.78
2018-02-27T06:09:59.122Z,5.40
2018-02-27T06:12:26.292Z,6.43
2018-02-27T06:14:52.704Z,5.68
2018-02-27T06:17:19.445Z,6.15
2018-02-27T06:19:45.763Z,6.68
2018-02-27T06:22:12.161Z,6.00
2018-02-27T06:24:38.593Z,6.72
2018-02-27T06:27:06.721Z,6.37
2018-02-27T06:29:34.380Z,6.35
2018-02-27T06:32:02.252Z,7.15
2018-02-27T06:34:28.620Z,7.10
2018-02-27T06:36:55.067Z,6.87
2018-02-27T06:39:21.429Z,7.97
2018-02-27T06:41:48.634Z,7.70
2018-02-27T06:44:16.376Z,8.55
2018-02-27T06:46:42.704Z,6.03
2018-02-27T06:49:08.968Z,7.15
2018-02-27T06:51:35.241Z,7.25
2018-02-27T06:54:02.390Z,6.87
2018-02-27T06:56:30.414Z,8.07
2018-02-27T06:58:56.690Z,7.60
2018-02-27T07:01:22.878Z,6.68
2018-02-27T07:03:50.813Z,6.20
2018-02-27T07:06:17.229Z,7.55
2018-02-27T07:08:43.348Z,8.13
2018-02-27T07:11:09.681Z,10.25
2018-02-27T07:13:35.865Z,7.53
2018-02-27T07:16:02.298Z,7.68
2018-02-27T07:18:28.763Z,6.40
2018-02-27T07:20:55.063Z,6.90
2018-02-27T07:23:21.556Z,6.40
2018-02-27T07:25:48.790Z,7.45
2018-02-27T07:28:15.176Z,6.35
2018-02-27T07:30:42.161Z,7.35
2018-02-27T07:33:08.871Z,6.97
2018-02-27T07:35:35.855Z,7.50
2018-02-27T07:38:03.524Z,6.87
2018-02-27T07:40:30.309Z,7.72
2018-02-27T07:42:56.800Z,7.82
2018-02-27T07:45:23.168Z,6.93
2018-02-27T07:47:49.611Z,8.35
2018-02-27T07:50:15.781Z,9.00
2018-02-27T07:52:43.998Z,8.10
2018-02-27T07:55:11.011Z,8.35
2018-02-27T07:57:39.754Z,8.10
2018-02-27T08:00:06.016Z,8.98
2018-02-27T08:02:33.332Z,8.85
2018-02-27T08:04:59.512Z,8.68
2018-02-27T08:07:25.726Z,8.50
2018-02-27T08:09:51.998Z,8.27
2018-02-27T08:12:18.570Z,8.93
2018-02-27T08:14:45.246Z,8.70
2018-02-27T08:17:12.501Z,9.95
2018-02-27T08:19:38.830Z,10.63
2018-02-27T08:22:05.474Z,10.82
2018-02-27T08:24:32.120Z,9.88
2018-02-27T08:26:58.336Z,10.20
2018-02-27T08:29:24.766Z,10.23
2018-02-27T08:31:51.456Z,10.23
2018-02-27T08:34:17.673Z,10.40
2018-02-27T08:36:44.877Z,10.55
2018-02-27T08:39:11.107Z,8.13
2018-02-27T08:41:37.254Z,13.23
2018-02-27T08:44:05.873Z,10.48
2018-02-27T08:46:32.420Z,10.18
2018-02-27T08:48:58.969Z,10.98
2018-02-27T08:51:25.214Z,13.70
2018-02-27T08:53:51.552Z,8.63
2018-02-27T08:56:17.729Z,10.75
2018-02-27T08:58:43.883Z,11.85
2018-02-27T09:01:10.020Z,11.43
2018-02-27T09:03:36.158Z,10.07
2018-02-27T09:06:02.425Z,10.75
2018-02-27T09:08:29.024Z,10.77
2018-02-27T09:10:57.004Z,11.00
2018-02-27T09:13:23.441Z,12.07
2018-02-27T09:15:49.727Z,11.43
2018-02-27T09:18:16.010Z,10.50
2018-02-27T09:20:42.181Z,11.60
2018-02-27T09:23:08.916Z,11.02
2018-02-27T09:25:35.868Z,10.68
2018-02-27T09:28:02.085Z,9.32
2018-02-27T09:30:28.723Z,11.32
2018-02-27T09:32:55.727Z,8.85
2018-02-27T09:35:23.658Z,11.95
2018-02-27T09:37:50.091Z,12.00
2018-02-27T09:40:16.503Z,10.68
2018-02-27T09:42:43.297Z,10.63
2018-02-27T09:45:09.906Z,10.45
2018-02-27T09:47:36.156Z,11.77
2018-02-27T09:50:04.434Z,10.75
2018-02-27T09:52:30.669Z,12.23
2018-02-27T09:54:57.783Z,11.32
2018-02-27T09:57:24.808Z,11.57
2018-02-27T09:59:51.088Z,11.40
2018-02-27T10:02:18.486Z,10.57
2018-02-27T10:04:45.232Z,10.95
2018-02-27T10:07:11.552Z,11.02
2018-02-27T10:09:37.871Z,12.00
2018-02-27T10:12:04.702Z,10.82
2018-02-27T10:14:32.451Z,11.95
2018-02-27T10:16:59.414Z,12.65
2018-02-27T10:19:26.447Z,12.77
2018-02-27T10:21:53.398Z,11.55
2018-02-27T10:24:19.781Z,11.80
2018-02-27T10:26:47.189Z,10.95
2018-02-27T10:29:13.447Z,10.82
2018-02-27T10:31:40.509Z,12.77
2018-02-27T10:34:07.374Z,12.68
2018-02-27T10:36:34.379Z,8.45
2018-02-27T10:39:00.608Z,9.70
2018-02-27T10:41:27.434Z,11.85
2018-02-27T10:43:54.167Z,11.98
2018-02-27T10:46:20.457Z,9.95
2018-02-27T10:48:46.632Z,10.68
2018-02-27T10:51:14.017Z,11.75
2018-02-27T10:53:40.746Z,10.05
2018-02-27T10:56:06.863Z,10.77
2018-02-27T10:58:32.990Z,10.52
2018-02-27T11:01:02.434Z,11.27
2018-02-27T11:03:29.209Z,10.88
2018-02-27T11:05:56.050Z,10.93
2018-02-27T11:08:22.997Z,12.57
2018-02-27T11:10:49.122Z,10.55
2018-02-27T11:13:15.965Z,9.73
2018-02-27T11:15:42.287Z,10.85
2018-02-27T11:18:09.048Z,11.00
2018-02-27T11:20:35.367Z,10.90
2018-02-27T11:23:01.824Z,11.02
2018-02-27T11:25:29.148Z,10.30
2018-02-27T11:27:55.499Z,12.18
2018-02-27T11:30:22.424Z,10.45
2018-02-27T11:32:48.674Z,10.48
2018-02-27T11:35:14.844Z,11.48
2018-02-27T11:37:41.148Z,11.40
2018-02-27T11:40:07.466Z,11.38
2018-02-27T11:42:34.073Z,11.82
2018-02-27T11:45:01.443Z,10.50
2018-02-27T11:47:27.807Z,9.80
2018-02-27T11:49:55.029Z,10.10
2018-02-27T11:52:21.774Z,11.63
2018-02-27T11:54:48.998Z,10.95
2018-02-27T11:57:15.270Z,9.02
2018-02-27T11:59:42.805Z,9.27
2018-02-27T12:02:09.736Z,8.77
2018-02-27T12:04:35.914Z,9.50
2018-02-27T12:07:02.350Z,9.88
2018-02-27T12:09:29.887Z,8.90
2018-02-27T12:11:56.221Z,9.05
2018-02-27T12:14:22.856Z,9.75
2018-02-27T12:16:49.028Z,9.20
2018-02-27T12:19:17.938Z,10.07
2018-02-27T12:21:48.466Z,9.75
2018-02-27T12:24:14.648Z,8.38
2018-02-27T12:26:40.975Z,10.27
2018-02-27T12:29:07.679Z,8.65
2018-02-27T12:31:34.981Z,9.45
2018-02-27T12:34:01.263Z,8.60
2018-02-27T12:36:28.372Z,8.68
2018-02-27T12:38:54.620Z,10.30
2018-02-27T12:41:20.850Z,10.27
2018-02-27T12:43:47.898Z,9.60
2018-02-27T12:46:14.359Z,8.98
2018-02-27T12:48:40.663Z,10.02
2018-02-27T12:51:06.908Z,8.80
2018-02-27T12:53:33.524Z,9.45
2018-02-27T12:56:00.917Z,9.25
2018-02-27T12:58:27.615Z,10.30
2018-02-27T13:00:54.029Z,9.43
2018-02-27T13:03:20.580Z,9.52
2018-02-27T13:05:47.058Z,8.70
2018-02-27T13:08:14.195Z,8.88
2018-02-27T13:10:40.521Z,8.45
2018-02-27T13:13:07.180Z,8.80
2018-02-27T13:15:33.310Z,9.50
2018-02-27T13:17:59.487Z,9.13
2018-02-27T13:20:26.238Z,9.35
2018-02-27T13:22:52.594Z,9.35
2018-02-27T13:25:19.032Z,9.25
2018-02-27T13:27:45.378Z,10.43
2018-02-27T13:30:11.984Z,9.10
2018-02-27T13:32:38.633Z,8.07
2018-02-27T13:35:05.288Z,8.77
2018-02-27T13:37:31.588Z,9.27
2018-02-27T13:39:59.228Z,8.70
2018-02-27T13:42:25.567Z,8.25
2018-02-27T13:44:52.016Z,8.70
2018-02-27T13:47:18.433Z,8.32
2018-02-27T13:49:46.421Z,7.93
2018-02-27T13:52:13.172Z,7.65
2018-02-27T13:54:39.692Z,9.65
2018-02-27T13:57:07.656Z,8.40
2018-02-27T13:59:34.559Z,8.90
2018-02-27T14:02:02.108Z,8.60
2018-02-27T14:04:29.200Z,8.68
2018-02-27T14:06:55.531Z,7.62
2018-02-27T14:09:23.610Z,7.90
2018-02-27T14:11:50.754Z,7.43
2018-02-27T14:14:17.124Z,7.47
2018-02-27T14:16:43.455Z,8.30
2018-02-27T14:19:09.984Z,7.50
2018-02-27T14:21:37.518Z,8.85
2018-02-27T14:24:03.788Z,8.32
2018-02-27T14:26:30.185Z,7.53
2018-02-27T14:28:56.356Z,9.15
2018-02-27T14:31:23.651Z,7.35
2018-02-27T14:33:49.885Z,7.15
2018-02-27T14:36:16.497Z,7.20
2018-02-27T14:38:42.988Z,7.80
2018-02-27T14:41:09.327Z,8.52
2018-02-27T14:43:35.486Z,8.38
2018-02-27T14:46:01.712Z,7.95
2018-02-27T14:48:28.223Z,7.70
2018-02-27T14:50:55.201Z,8.60
2018-02-27T14:53:21.536Z,8.45
2018-02-27T14:55:48.238Z,8.32
2018-02-27T14:58:14.619Z,7.82
2018-02-27T15:00:41.739Z,8.05
2018-02-27T15:03:08.004Z,8.07
2018-02-27T15:05:34.502Z,8.20
2018-02-27T15:08:02.851Z,8.82
2018-02-27T15:10:29.639Z,8.85
2018-02-27T15:12:56.938Z,8.20
2018-02-27T15:15:23.323Z,7.37
2018-02-27T15:17:51.069Z,8.93
2018-02-27T15:20:18.118Z,8.35
2018-02-27T15:22:45.472Z,7.57
2018-02-27T15:25:12.104Z,8.40
2018-02-27T15:27:38.432Z,7.85
2018-02-27T15:30:05.596Z,8.77
2018-02-27T15:32:31.771Z,8.75
2018-02-27T15:34:57.950Z,7.70
2018-02-27T15:37:24.060Z,7.00
2018-02-27T15:39:51.280Z,8.60
2018-02-27T15:42:17.452Z,8.77
2018-02-27T15:44:43.619Z,8.75
2018-02-27T15:47:10.613Z,8.60
2018-02-27T15:49:38.372Z,8.30
2018-02-27T15:52:04.732Z,8.90
2018-02-27T15:54:31.108Z,8.10
2018-02-27T15:56:57.319Z,8.32
2018-02-27T15:59:24.790Z,7.57
2018-02-27T16:01:50.977Z,7.45
2018-02-27T16:04:17.223Z,8.05
2018-02-27T16:06:44.054Z,6.90
2018-02-27T16:09:12.223Z,8.88
2018-02-27T16:11:38.495Z,8.98
2018-02-27T16:14:05.041Z,8.02
2018-02-27T16:16:31.726Z,7.20
2018-02-27T16:18:57.824Z,7.50
2018-02-27T16:21:24.085Z,8.68
2018-02-27T16:23:50.227Z,7.97
2018-02-27T16:26:16.464Z,7.68
2018-02-27T16:28:42.734Z,8.63
2018-02-27T16:31:08.852Z,9.05
2018-02-27T16:33:36.028Z,7.65
2018-02-27T16:36:02.297Z,7.50
2018-02-27T16:38:28.502Z,7.50
2018-02-27T16:40:55.738Z,7.90
2018-02-27T16:43:22.714Z,7.55
2018-02-27T16:45:50.504Z,7.75
2018-02-27T16:48:16.760Z,7.35
2018-02-27T16:50:43.015Z,7.68
2018-02-27T16:53:10.051Z,7.18
2018-02-27T16:55:36.334Z,7.72
2018-02-27T16:58:03.896Z,8.52
2018-02-27T17:00:31.807Z,8.73
2018-02-27T17:02:58.528Z,8.77
2018-02-27T17:05:25.455Z,8.57
2018-02-27T17:07:52.346Z,8.82
2018-02-27T17:10:18.649Z,7.97
2018-02-27T17:12:46.263Z,7.57
2018-02-27T17:15:13.581Z,8.88
2018-02-27T17:17:40.098Z,9.23
2018-02-27T17:20:06.258Z,7.85
2018-02-27T17:22:34.468Z,9.45
2018-02-27T17:25:00.715Z,8.48
2018-02-27T17:27:27.226Z,7.60
2018-02-27T17:29:53.420Z,9.23
2018-02-27T17:32:20.344Z,8.15
2018-02-27T17:34:46.569Z,9.25
2018-02-27T17:37:13.638Z,8.98
2018-02-27T17:39:39.875Z,8.10
2018-02-27T17:42:06.102Z,9.55
2018-02-27T17:44:32.999Z,8.20
2018-02-27T17:46:59.347Z,8.00
2018-02-27T17:49:25.601Z,8.50
2018-02-27T17:51:51.695Z,7.95
2018-02-27T17:54:17.901Z,7.55
2018-02-27T17:56:45.967Z,9.68
2018-02-27T17:59:12.383Z,8.52
2018-02-27T18:01:39.729Z,8.27
2018-02-27T18:04:05.796Z,8.52
2018-02-27T18:06:32.991Z,8.52
2018-02-27T18:08:59.787Z,10.02
2018-02-27T18:11:26.292Z,9.18
2018-02-27T18:13:53.344Z,10.02
2018-02-27T18:16:19.930Z,17.27
2018-02-27T18:18:46.004Z,10.38
2018-02-27T18:21:12.644Z,17.98
2018-02-27T18:23:38.801Z,16.40
2018-02-27T18:26:05.807Z,9.00
2018-02-27T18:28:33.226Z,9.25
2018-02-27T18:31:00.471Z,8.93
2018-02-27T18:33:27.205Z,9.85
2018-02-27T18:35:54.364Z,8.68
2018-02-27T18:38:23.440Z,8.45
2018-02-27T18:40:50.748Z,9.45
2018-02-27T18:43:17.243Z,8.40
2018-02-27T18:45:44.443Z,8.10
2018-02-27T18:48:11.997Z,8.52
2018-02-27T18:50:38.216Z,8.98
2018-02-27T18:53:04.484Z,8.25
2018-02-27T18:55:30.617Z,8.13
2018-02-27T18:57:56.788Z,8.02
2018-02-27T19:00:23.748Z,8.55
2018-02-27T19:02:50.251Z,8.20
2018-02-27T19:05:17.342Z,8.80
2018-02-27T19:07:43.645Z,10.27
2018-02-27T19:10:09.832Z,10.45
2018-02-27T19:12:36.648Z,9.10
2018-02-27T19:15:03.483Z,10.48
2018-02-27T19:17:29.569Z,9.48
2018-02-27T19:19:55.770Z,9.20
2018-02-27T19:22:21.840Z,10.70
2018-02-27T19:24:48.061Z,13.95
2018-02-27T19:27:14.315Z,10.73
2018-02-27T19:29:40.538Z,11.18
2018-02-27T19:32:06.824Z,10.93
2018-02-27T19:34:34.742Z,11.23
2018-02-27T19:37:00.899Z,9.40
2018-02-27T19:39:27.702Z,8.60
2018-02-27T19:41:55.449Z,11.63
2018-02-27T19:44:21.957Z,12.10
2018-02-27T19:46:48.141Z,9.38
2018-02-27T19:49:15.389Z,9.98
2018-02-27T19:51:42.703Z,8.82
2018-02-27T19:54:09.981Z,8.90
2018-02-27T19:56:36.118Z,10.75
2018-02-27T19:59:02.434Z,9.57
2018-02-27T20:01:30.029Z,9.00
2018-02-27T20:03:56.535Z,8.88
2018-02-27T20:06:22.741Z,8.68
2018-02-27T20:08:49.801Z,8.20
2018-02-27T20:11:17.857Z,8.63
2018-02-27T20:13:44.046Z,8.40
2018-02-27T20:16:11.770Z,8.77
2018-02-27T20:18:38.235Z,8.50
2018-02-27T20:21:04.527Z,7.53
2018-02-27T20:23:36.908Z,8.13
2018-02-27T20:26:03.322Z,7.75
2018-02-27T20:28:35.806Z,7.75
2018-02-27T20:31:02.165Z,7.45
2018-02-27T20:33:28.790Z,8.05
2018-02-27T20:35:55.209Z,6.90
2018-02-27T20:38:28.394Z,7.20
2018-02-27T20:40:54.584Z,8.60
2018-02-27T20:43:20.742Z,7.72
2018-02-27T20:45:48.007Z,6.40
2018-02-27T20:48:14.953Z,6.95
2018-02-27T20:50:41.801Z,8.43
2018-02-27T20:53:08.947Z,7.95
2018-02-27T20:55:36.217Z,7.30
2018-02-27T20:58:02.429Z,7.90
2018-02-27T21:00:29.466Z,7.30
2018-02-27T21:02:57.040Z,8.10
2018-02-27T21:05:23.207Z,8.30
2018-02-27T21:07:53.339Z,8.57
2018-02-27T21:10:20.415Z,8.98
2018-02-27T21:12:53.319Z,8.05
2018-02-27T21:15:19.613Z,7.68
2018-02-27T21:17:46.030Z,7.78
2018-02-27T21:20:19.073Z,8.75
2018-02-27T21:22:45.424Z,7.82
2018-02-27T21:25:11.553Z,8.77
2018-02-27T21:27:37.772Z,7.95
2018-02-27T21:30:04.236Z,7.47
2018-02-27T21:32:33.028Z,7.60
2018-02-27T21:34:59.250Z,7.75
2018-02-27T21:37:25.639Z,8.25
2018-02-27T21:39:52.611Z,8.05
2018-02-27T21:42:18.762Z,8.77
2018-02-27T21:44:45.966Z,7.90
2018-02-27T21:47:13.513Z,8.20
2018-02-27T21:49:41.296Z,7.95
2018-02-27T21:52:07.606Z,8.15
2018-02-27T21:54:34.820Z,8.70
2018-02-27T21:57:02.451Z,8.80
2018-02-27T21:59:28.812Z,8.85
2018-02-27T22:01:56.121Z,8.98
2018-02-27T22:04:22.212Z,9.18
2018-02-27T22:06:48.857Z,9.82
2018-02-27T22:09:15.336Z,8.82
2018-02-27T22:11:41.645Z,9.05
2018-02-27T22:14:07.766Z,9.90
2018-02-27T22:16:33.974Z,9.73
2018-02-27T22:19:01.768Z,9.48
2018-02-27T22:21:28.814Z,8.30
2018-02-27T22:23:55.669Z,9.07
2018-02-27T22:26:23.109Z,9.77
2018-02-27T22:28:49.959Z,8.60
2018-02-27T22:31:19.442Z,9.25
2018-02-27T22:33:45.607Z,9.68
2018-02-27T22:36:12.192Z,10.70
2018-02-27T22:38:39.223Z,9.82
2018-02-27T22:41:06.484Z,9.55
2018-02-27T22:43:33.083Z,8.52
2018-02-27T22:46:00.634Z,9.93
2018-02-27T22:48:26.814Z,10.32
2018-02-27T22:50:53.152Z,10.35
2018-02-27T22:53:19.322Z,9.27
2018-02-27T22:55:45.536Z,9.00
2018-02-27T22:58:12.686Z,9.32
2018-02-27T23:00:38.811Z,10.43
2018-02-27T23:03:05.192Z,9.85
2018-02-27T23:05:31.473Z,9.80
2018-02-27T23:07:58.764Z,9.98
2018-02-27T23:10:26.859Z,10.38
2018-02-27T23:12:53.942Z,8.52
2018-02-27T23:15:21.564Z,9.65
2018-02-27T23:17:47.727Z,9.68
2018-02-27T23:20:15.901Z,9.45
2018-02-27T23:22:42.934Z,10.23
2018-02-27T23:25:17.568Z,9.90
2018-02-27T23:27:44.246Z,9.90
2018-02-27T23:30:12.366Z,8.75
2018-02-27T23:32:41.031Z,10.30
2018-02-27T23:35:15.496Z,9.35
2018-02-27T23:37:42.478Z,10.15
2018-02-27T23:40:09.801Z,8.88
2018-02-27T23:42:35.908Z,8.98
2018-02-27T23:45:02.164Z,9.60
2018-02-27T23:47:28.384Z,8.65
2018-02-27T23:49:54.601Z,9.32
2018-02-27T23:52:21.599Z,8.88
2018-02-27T23:54:48.603Z,11.77
2018-02-27T23:57:15.512Z,9.40
2018-02-27T23:59:43.518Z,9.57
